Time;durP1;ratioP1;P1;durP2;ratioP2;P2;SDS_P1;SDS_P2;PMS_P1;PMS_P2;Temp;Humidity;BMP_temperature;BMP_pressure;BME280_temperature;BME280_humidity;BME280_pressure;Samples;Min_cycle;Max_cycle;Signal;HPM_P1;HPM_P2
2023/12/20 00:01:51;;;;;;;1.48;0.93;;;;;;;4.71;100.00;97696.75;5074417;28;20056;-60
2023/12/20 00:04:17;;;;;;;1.45;1.00;;;;;;;4.65;100.00;97684.16;5079822;28;20040;-61
2023/12/20 00:06:43;;;;;;;1.35;0.98;;;;;;;4.70;100.00;97700.25;5070631;28;20043;-62
2023/12/20 00:09:09;;;;;;;1.58;0.80;;;;;;;4.64;100.00;97703.06;5069464;28;20469;-61
2023/12/20 00:11:35;;;;;;;2.75;1.55;;;;;;;4.38;100.00;97678.44;5070769;28;20044;-61
2023/12/20 00:14:01;;;;;;;3.15;1.20;;;;;;;4.58;100.00;97703.31;5074364;28;20420;-61
2023/12/20 00:16:27;;;;;;;2.55;1.30;;;;;;;4.37;100.00;97661.34;5062525;28;20044;-60
2023/12/20 00:18:53;;;;;;;0.75;0.60;;;;;;;4.64;100.00;97709.06;5088764;28;20044;-61
2023/12/20 00:21:19;;;;;;;1.23;0.82;;;;;;;4.59;100.00;97694.72;5077085;28;20089;-63
2023/12/20 00:23:45;;;;;;;1.23;0.80;;;;;;;4.66;100.00;97717.53;5071156;28;20040;-61
2023/12/20 00:26:11;;;;;;;1.73;1.00;;;;;;;4.66;100.00;97720.09;5069057;28;20037;-61
2023/12/20 00:28:37;;;;;;;1.30;0.60;;;;;;;4.73;100.00;97718.13;5090334;28;20468;-61
2023/12/20 00:31:03;;;;;;;1.65;0.90;;;;;;;4.74;100.00;97706.94;5089315;28;20503;-61
2023/12/20 00:33:29;;;;;;;0.95;0.80;;;;;;;4.80;100.00;97705.84;5072407;28;20098;-62
2023/12/20 00:35:55;;;;;;;1.45;1.00;;;;;;;4.74;100.00;97714.66;5050653;28;20097;-61
2023/12/20 00:38:21;;;;;;;1.17;0.63;;;;;;;4.72;100.00;97715.59;5072067;28;20134;-61
2023/12/20 00:40:47;;;;;;;1.13;0.80;;;;;;;4.78;100.00;97729.06;5073766;28;20036;-62
2023/12/20 00:43:12;;;;;;;1.20;0.93;;;;;;;4.84;100.00;97718.50;5072954;28;20056;-62
2023/12/20 00:45:39;;;;;;;1.70;1.13;;;;;;;4.87;100.00;97727.81;5074133;28;20036;-61
2023/12/20 00:48:05;;;;;;;1.27;0.90;;;;;;;4.64;100.00;97697.94;5075246;28;20047;-61
2023/12/20 00:50:31;;;;;;;1.42;0.80;;;;;;;4.86;100.00;97719.28;5068799;28;20044;-61
2023/12/20 00:52:57;;;;;;;1.52;0.80;;;;;;;4.80;100.00;97718.69;5061534;28;20570;-61
2023/12/20 00:55:22;;;;;;;1.70;0.63;;;;;;;4.56;100.00;97698.25;5070490;28;20149;-61
2023/12/20 00:57:48;;;;;;;1.25;0.88;;;;;;;4.74;100.00;97706.94;5073207;28;20633;-62
2023/12/20 01:00:14;;;;;;;2.75;1.17;;;;;;;4.69;100.00;97701.97;5072871;28;20036;-61
2023/12/20 01:02:40;;;;;;;1.00;0.60;;;;;;;4.68;100.00;97696.88;5075102;28;20052;-61
2023/12/20 01:05:07;;;;;;;2.47;1.30;;;;;;;4.57;100.00;97688.78;5073256;28;20051;-61
2023/12/20 01:07:33;;;;;;;2.15;0.90;;;;;;;4.36;100.00;97682.81;5077931;28;20542;-60
2023/12/20 01:09:59;;;;;;;3.38;1.10;;;;;;;4.16;100.00;97660.47;5068246;28;20039;-61
2023/12/20 01:12:25;;;;;;;2.20;1.05;;;;;;;4.28;100.00;97684.88;5075674;28;20188;-61
2023/12/20 01:14:51;;;;;;;1.88;1.17;;;;;;;4.18;100.00;97681.84;5072942;28;20502;-61
2023/12/20 01:17:17;;;;;;;3.17;1.40;;;;;;;4.15;100.00;97699.09;5067202;28;20499;-60
2023/12/20 01:19:43;;;;;;;1.73;0.95;;;;;;;4.12;100.00;97691.53;5073001;28;20538;-63
2023/12/20 01:22:09;;;;;;;1.38;1.23;;;;;;;4.06;100.00;97684.91;5075430;28;20056;-62
2023/12/20 01:24:35;;;;;;;5.32;1.17;;;;;;;4.03;100.00;97681.63;5051103;28;20040;-62
2023/12/20 01:27:02;;;;;;;1.40;1.00;;;;;;;4.02;100.00;97675.66;5072913;28;20038;-62
2023/12/20 01:29:28;;;;;;;3.65;1.50;;;;;;;3.92;100.00;97664.06;5072572;28;20060;-60
2023/12/20 01:31:54;;;;;;;4.13;1.13;;;;;;;4.00;100.00;97684.31;5072697;28;20519;-60
2023/12/20 01:34:19;;;;;;;3.00;1.50;;;;;;;3.94;100.00;97672.53;5073078;28;20049;-61
2023/12/20 01:36:45;;;;;;;2.30;1.40;;;;;;;3.95;100.00;97675.94;5074081;28;20040;-62
2023/12/20 01:39:11;;;;;;;2.10;1.40;;;;;;;4.05;100.00;97675.50;5072736;28;20036;-59
2023/12/20 01:41:37;;;;;;;2.97;1.40;;;;;;;4.12;100.00;97676.09;5073643;28;20046;-62
2023/12/20 01:44:04;;;;;;;5.28;1.73;;;;;;;4.11;100.00;97672.69;5073562;28;20043;-61
2023/12/20 01:46:30;;;;;;;2.75;1.50;;;;;;;4.14;100.00;97672.56;5076174;28;20036;-61
2023/12/20 01:48:56;;;;;;;5.65;2.20;;;;;;;4.14;100.00;97661.44;5060180;28;20440;-61
2023/12/20 01:51:22;;;;;;;4.68;1.48;;;;;;;4.22;100.00;97661.97;5064718;28;20047;-61
2023/12/20 01:53:49;;;;;;;4.43;1.55;;;;;;;4.26;100.00;97660.94;5056418;28;20573;-60
2023/12/20 01:56:16;;;;;;;3.88;1.60;;;;;;;4.30;100.00;97657.34;5048347;28;20090;-60
2023/12/20 01:58:46;;;;;;;4.60;1.20;;;;;;;4.25;100.00;97659.25;5072539;28;20205;-60
2023/12/20 02:01:13;;;;;;;5.55;2.08;;;;;;;4.15;100.00;97656.22;5088883;28;20048;-60
2023/12/20 02:03:42;;;;;;;3.45;1.52;;;;;;;4.08;100.00;97672.00;5087285;28;20040;-61
2023/12/20 02:06:09;;;;;;;3.45;1.27;;;;;;;4.08;100.00;97664.28;5075912;28;20045;-61
2023/12/20 02:08:35;;;;;;;4.05;1.40;;;;;;;4.00;100.00;97640.59;5070238;28;20039;-61
2023/12/20 02:11:01;;;;;;;2.58;1.50;;;;;;;4.25;100.00;97665.25;5071481;28;20056;-61
2023/12/20 02:13:28;;;;;;;3.35;1.20;;;;;;;4.25;100.00;97662.66;5070549;28;20123;-63
2023/12/20 02:15:55;;;;;;;4.25;1.00;;;;;;;4.22;100.00;97646.53;5074985;28;20043;-61
2023/12/20 02:18:21;;;;;;;2.63;1.50;;;;;;;4.21;100.00;97642.28;5075548;28;20043;-61
2023/12/20 02:20:47;;;;;;;3.17;1.58;;;;;;;3.79;100.00;97581.47;5074931;28;20044;-61
2023/12/20 02:23:13;;;;;;;3.92;0.90;;;;;;;3.71;100.00;97562.13;5076012;28;20113;-62
2023/12/20 02:25:38;;;;;;;3.13;0.93;;;;;;;3.65;100.00;97557.25;5075887;28;20039;-62
2023/12/20 02:28:05;;;;;;;1.55;0.90;;;;;;;4.09;100.00;97635.06;5073349;28;20040;-61
2023/12/20 02:30:31;;;;;;;1.70;1.00;;;;;;;4.11;100.00;97639.28;5072961;28;20044;-62
2023/12/20 02:33:02;;;;;;;2.47;0.93;;;;;;;3.75;100.00;97572.22;5075782;28;20089;-61
2023/12/20 02:35:28;;;;;;;2.15;0.90;;;;;;;4.24;100.00;97634.44;5075985;28;20055;-61
2023/12/20 02:37:54;;;;;;;3.28;0.70;;;;;;;4.39;100.00;97643.28;5065248;28;20036;-62
2023/12/20 02:40:19;;;;;;;3.03;0.95;;;;;;;4.43;100.00;97645.66;5076121;28;20040;-61
2023/12/20 02:42:45;;;;;;;1.83;0.88;;;;;;;4.19;100.00;97613.22;5078155;28;20040;-61
2023/12/20 02:45:11;;;;;;;3.50;0.57;;;;;;;4.44;100.00;97644.75;5050919;28;20044;-62
2023/12/20 02:47:38;;;;;;;1.38;0.50;;;;;;;4.43;100.00;97660.25;5074266;28;20040;-61
2023/12/20 02:50:04;;;;;;;1.98;1.13;;;;;;;4.40;100.00;97653.47;5069559;28;20070;-61
2023/12/20 02:52:31;;;;;;;1.42;0.50;;;;;;;4.44;100.00;97660.19;5081785;28;20126;-61
2023/12/20 02:54:57;;;;;;;2.03;0.88;;;;;;;4.52;100.00;97654.69;5063771;28;20051;-60
2023/12/20 02:57:23;;;;;;;2.53;0.68;;;;;;;4.50;100.00;97643.66;5077349;28;20423;-61
2023/12/20 02:59:49;;;;;;;0.90;0.60;;;;;;;4.52;100.00;97655.53;5075220;28;20043;-61
2023/12/20 03:02:15;;;;;;;2.83;0.82;;;;;;;4.18;100.00;97586.69;5075936;28;20111;-61
2023/12/20 03:04:41;;;;;;;1.45;0.57;;;;;;;4.51;100.00;97640.16;5075550;28;20048;-61
2023/12/20 03:07:07;;;;;;;3.88;1.67;;;;;;;4.54;100.00;97642.63;5075939;28;20093;-61
2023/12/20 03:09:33;;;;;;;3.45;1.25;;;;;;;4.56;100.00;97646.78;5057961;28;20039;-61
2023/12/20 03:11:59;;;;;;;3.03;0.98;;;;;;;4.36;100.00;97591.94;5073352;28;20041;-60
2023/12/20 03:14:25;;;;;;;4.85;1.13;;;;;;;4.57;100.00;97635.59;5073620;28;20044;-61
2023/12/20 03:16:51;;;;;;;6.20;1.17;;;;;;;4.59;100.00;97645.81;5086052;28;20036;-62
2023/12/20 03:19:19;;;;;;;9.30;1.30;;;;;;;4.39;100.00;97615.81;5090743;28;20089;-60
2023/12/20 03:21:45;;;;;;;3.05;1.60;;;;;;;4.40;100.00;97617.47;5081546;28;20040;-62
2023/12/20 03:24:11;;;;;;;3.85;1.30;;;;;;;4.56;100.00;97635.66;5077317;28;20044;-61
2023/12/20 03:26:38;;;;;;;3.22;1.45;;;;;;;4.33;100.00;97602.38;5076488;28;20055;-60
2023/12/20 03:29:04;;;;;;;1.98;1.00;;;;;;;4.55;100.00;97639.94;5067741;28;20232;-61
2023/12/20 03:31:30;;;;;;;5.07;1.50;;;;;;;4.52;100.00;97658.09;5080771;28;20074;-62
2023/12/20 03:33:56;;;;;;;4.70;1.50;;;;;;;4.34;100.00;97628.03;5074202;28;20036;-61
2023/12/20 03:36:22;;;;;;;2.10;1.17;;;;;;;4.15;100.00;97603.97;5076773;28;20047;-60
2023/12/20 03:38:48;;;;;;;3.65;1.08;;;;;;;4.25;100.00;97643.81;5073232;28;20131;-61
2023/12/20 03:41:15;;;;;;;1.77;1.00;;;;;;;4.16;100.00;97639.06;5072502;28;20044;-59
2023/12/20 03:43:41;;;;;;;3.83;1.00;;;;;;;4.17;100.00;97649.31;5072078;28;20627;-60
2023/12/20 03:46:10;;;;;;;1.08;0.70;;;;;;;3.99;100.00;97615.78;5071788;28;20048;-61
2023/12/20 03:48:35;;;;;;;2.83;1.00;;;;;;;4.08;100.00;97643.72;5084086;28;20088;-61
2023/12/20 03:51:01;;;;;;;2.08;1.00;;;;;;;4.12;100.00;97643.53;5079941;28;20290;-61
2023/12/20 03:53:28;;;;;;;1.70;1.00;;;;;;;4.01;100.00;97629.44;5075195;28;20044;-60
2023/12/20 03:55:54;;;;;;;1.90;1.17;;;;;;;3.89;100.00;97617.91;5071972;28;20032;-62
2023/12/20 03:58:20;;;;;;;1.60;0.95;;;;;;;4.14;100.00;97651.16;5058512;28;20094;-60
2023/12/20 04:00:46;;;;;;;2.20;1.25;;;;;;;4.15;100.00;97648.53;5071067;28;20113;-60
2023/12/20 04:03:14;;;;;;;3.65;1.42;;;;;;;4.21;100.00;97652.56;5075572;28;20565;-61
2023/12/20 04:05:41;;;;;;;3.13;1.67;;;;;;;4.25;100.00;97654.13;5083739;28;20049;-62
2023/12/20 04:08:07;;;;;;;5.15;2.05;;;;;;;4.27;100.00;97654.91;5074452;28;20054;-60
2023/12/20 04:10:33;;;;;;;2.03;1.15;;;;;;;4.29;100.00;97650.53;5073926;28;20423;-60
2023/12/20 04:12:59;;;;;;;1.38;1.00;;;;;;;4.33;100.00;97656.38;5080360;28;20036;-59
2023/12/20 04:15:25;;;;;;;1.92;1.08;;;;;;;4.32;100.00;97655.53;5074366;28;20040;-61
2023/12/20 04:17:51;;;;;;;4.50;1.83;;;;;;;4.33;100.00;97661.53;5069189;28;20048;-61
2023/12/20 04:20:17;;;;;;;3.38;2.00;;;;;;;4.32;100.00;97652.13;5074814;28;20053;-61
2023/12/20 04:22:43;;;;;;;8.13;2.42;;;;;;;4.35;100.00;97646.84;5070855;28;20167;-61
2023/12/20 04:25:09;;;;;;;4.35;2.10;;;;;;;4.43;100.00;97658.50;5072751;28;20097;-61
2023/12/20 04:27:35;;;;;;;3.85;1.67;;;;;;;4.40;100.00;97670.63;5073089;28;20454;-60
2023/12/20 04:30:01;;;;;;;2.65;1.10;;;;;;;4.43;100.00;97662.81;5074404;28;20105;-60
2023/12/20 04:32:31;;;;;;;2.88;1.50;;;;;;;4.43;100.00;97655.94;5083662;28;20432;-60
2023/12/20 04:34:57;;;;;;;5.90;1.95;;;;;;;4.45;100.00;97668.75;5074683;28;20533;-61
2023/12/20 04:37:23;;;;;;;2.45;1.67;;;;;;;4.25;100.00;97639.53;5071958;28;20475;-61
2023/12/20 04:39:50;;;;;;;1.80;1.35;;;;;;;4.23;100.00;97635.38;5072641;28;20068;-61
2023/12/20 04:42:16;;;;;;;2.40;1.50;;;;;;;4.11;100.00;97608.41;5073911;28;20590;-61
2023/12/20 04:44:43;;;;;;;2.53;1.02;;;;;;;4.44;100.00;97667.91;5073344;28;20097;-61
2023/12/20 04:47:10;;;;;;;2.00;1.40;;;;;;;4.47;100.00;97672.06;5064423;28;20435;-61
2023/12/20 04:49:36;;;;;;;2.20;1.25;;;;;;;4.37;100.00;97650.19;5069365;28;20047;-62
2023/12/20 04:52:02;;;;;;;2.47;1.10;;;;;;;4.55;100.00;97680.31;5072856;28;20063;-61
2023/12/20 04:54:27;;;;;;;3.42;1.67;;;;;;;4.54;100.00;97670.91;5073470;28;20043;-62
2023/12/20 04:56:54;;;;;;;1.17;0.98;;;;;;;4.54;100.00;97673.50;5071892;28;20044;-61
2023/12/20 04:59:20;;;;;;;1.27;0.80;;;;;;;4.56;100.00;97667.38;5068735;28;20056;-61
2023/12/20 05:01:46;;;;;;;2.55;0.90;;;;;;;4.36;100.00;97631.34;5079651;28;20141;-62
2023/12/20 05:04:12;;;;;;;3.10;1.20;;;;;;;4.61;100.00;97672.31;5073557;28;20044;-61
2023/12/20 05:06:38;;;;;;;5.60;1.30;;;;;;;4.63;100.00;97668.78;5071793;28;20184;-61
2023/12/20 05:09:04;;;;;;;2.83;1.30;;;;;;;4.67;100.00;97674.63;5079704;28;20085;-61
2023/12/20 05:11:30;;;;;;;4.25;1.60;;;;;;;4.68;100.00;97677.16;5078024;28;20047;-62
2023/12/20 05:13:56;;;;;;;4.78;1.80;;;;;;;4.68;100.00;97679.72;5069457;28;20159;-62
2023/12/20 05:16:22;;;;;;;2.90;1.63;;;;;;;4.71;100.00;97675.34;5070782;28;20035;-62
2023/12/20 05:18:50;;;;;;;3.78;1.40;;;;;;;4.64;100.00;97670.47;5085172;28;20039;-63
2023/12/20 05:21:16;;;;;;;3.22;1.70;;;;;;;4.32;100.00;97631.56;5076484;28;20044;-61
2023/12/20 05:23:42;;;;;;;4.88;1.27;;;;;;;4.49;100.00;97665.97;5072419;28;20101;-61
2023/12/20 05:26:08;;;;;;;3.38;1.98;;;;;;;4.50;100.00;97675.34;5073075;28;20139;-62
2023/12/20 05:28:34;;;;;;;3.83;1.90;;;;;;;4.54;100.00;97683.78;5072488;28;20056;-60
2023/12/20 05:31:00;;;;;;;3.95;1.85;;;;;;;4.60;100.00;97691.25;5071638;28;20616;-61
2023/12/20 05:33:26;;;;;;;2.80;1.65;;;;;;;4.65;100.00;97679.84;5074878;28;20036;-61
2023/12/20 05:35:52;;;;;;;3.63;1.92;;;;;;;4.65;100.00;97685.00;5055439;28;20059;-62
2023/12/20 05:38:18;;;;;;;4.22;1.90;;;;;;;4.47;100.00;97660.03;5073129;28;20043;-61
2023/12/20 05:40:43;;;;;;;5.03;2.05;;;;;;;4.71;100.00;97701.09;5060576;28;20044;-62
2023/12/20 05:43:09;;;;;;;3.42;2.03;;;;;;;4.73;100.00;97706.97;5072867;28;20036;-63
2023/12/20 05:45:36;;;;;;;2.90;1.67;;;;;;;4.72;100.00;97695.00;5055673;28;20040;-62
2023/12/20 05:48:02;;;;;;;4.95;2.00;;;;;;;4.70;100.00;97697.69;5077397;28;20535;-62
2023/12/20 05:50:28;;;;;;;5.28;2.10;;;;;;;4.74;100.00;97704.34;5086404;28;20601;-61
2023/12/20 05:52:55;;;;;;;8.05;2.45;;;;;;;4.80;100.00;97701.53;5080756;28;20515;-62
2023/12/20 05:55:22;;;;;;;3.83;2.20;;;;;;;4.78;100.00;97692.19;5085690;28;20170;-62
2023/12/20 05:57:48;;;;;;;4.45;2.17;;;;;;;4.72;100.00;97701.00;5084345;28;20123;-61
2023/12/20 06:00:15;;;;;;;4.55;1.80;;;;;;;4.72;100.00;97677.84;5083418;28;20062;-63
2023/12/20 06:02:41;;;;;;;4.15;1.90;;;;;;;4.76;100.00;97692.28;5078782;28;20083;-61
2023/12/20 06:05:07;;;;;;;5.60;2.03;;;;;;;4.71;100.00;97690.78;5074043;28;20068;-63
2023/12/20 06:07:34;;;;;;;4.25;1.70;;;;;;;4.64;100.00;97698.78;5072778;28;20097;-62
2023/12/20 06:10:00;;;;;;;5.82;2.60;;;;;;;4.55;100.00;97688.84;5075537;28;20055;-62
2023/12/20 06:12:27;;;;;;;2.22;1.52;;;;;;;4.34;100.00;97653.75;5074492;28;20045;-64
2023/12/20 06:14:53;;;;;;;5.18;1.75;;;;;;;4.55;100.00;97704.28;5080582;28;20043;-62
2023/12/20 06:17:19;;;;;;;3.00;1.85;;;;;;;4.15;100.00;97638.25;5075404;28;20034;-61
2023/12/20 06:19:47;;;;;;;7.07;2.30;;;;;;;4.39;100.00;97669.84;5077843;28;20047;-61
2023/12/20 06:22:15;;;;;;;4.68;2.08;;;;;;;4.63;100.00;97704.81;5085632;28;20040;-61
2023/12/20 06:24:41;;;;;;;4.10;1.77;;;;;;;4.64;100.00;97700.50;5078927;28;20492;-62
2023/12/20 06:27:07;;;;;;;7.57;2.35;;;;;;;4.41;100.00;97672.31;5064901;28;20052;-62
2023/12/20 06:29:34;;;;;;;4.20;1.92;;;;;;;4.57;100.00;97701.66;5073909;28;20064;-62
2023/12/20 06:32:01;;;;;;;4.63;2.30;;;;;;;4.64;100.00;97716.78;5085045;28;20041;-61
2023/12/20 06:34:26;;;;;;;6.00;1.73;;;;;;;4.65;100.00;97715.88;5071692;28;20094;-61
2023/12/20 06:36:52;;;;;;;5.18;2.28;;;;;;;4.62;100.00;97710.84;5072244;28;20039;-61
2023/12/20 06:39:18;;;;;;;3.55;1.80;;;;;;;4.64;100.00;97708.22;5078591;28;20492;-62
2023/12/20 06:41:44;;;;;;;7.47;2.05;;;;;;;4.50;100.00;97685.63;5081276;28;20776;-61
2023/12/20 06:44:10;;;;;;;3.78;1.90;;;;;;;4.18;100.00;97642.44;5080880;28;20045;-60
2023/12/20 06:46:36;;;;;;;3.78;1.90;;;;;;;4.60;100.00;97709.25;5078376;28;20168;-60
2023/12/20 06:49:02;;;;;;;4.28;2.28;;;;;;;4.63;100.00;97706.53;5076652;28;20074;-60
2023/12/20 06:51:28;;;;;;;3.78;1.67;;;;;;;4.68;100.00;97710.59;5080542;28;20071;-59
2023/12/20 06:53:54;;;;;;;2.28;1.50;;;;;;;4.69;100.00;97703.72;5079455;28;20044;-60
2023/12/20 06:56:20;;;;;;;3.15;1.60;;;;;;;4.70;100.00;97692.53;5068087;28;20602;-60
2023/12/20 06:58:46;;;;;;;4.28;1.55;;;;;;;4.70;100.00;97692.53;5078099;28;20054;-60
2023/12/20 07:01:15;;;;;;;7.00;2.38;;;;;;;4.65;100.00;97677.28;5079431;28;20529;-59
2023/12/20 07:03:42;;;;;;;6.53;1.92;;;;;;;4.66;100.00;97686.66;5084740;28;20126;-62
2023/12/20 07:06:09;;;;;;;4.10;1.98;;;;;;;4.81;100.00;97700.63;5082678;28;20210;-60
2023/12/20 07:08:35;;;;;;;4.40;1.67;;;;;;;4.83;100.00;97710.84;5075798;28;20374;-63
2023/12/20 07:11:00;;;;;;;2.45;1.30;;;;;;;4.65;100.00;97685.00;5081139;28;20046;-62
2023/12/20 07:13:26;;;;;;;5.20;2.00;;;;;;;4.46;100.00;97642.09;5075711;28;20048;-62
2023/12/20 07:15:52;;;;;;;3.42;1.75;;;;;;;4.87;100.00;97710.63;5076770;28;20037;-62
2023/12/20 07:18:18;;;;;;;5.75;2.22;;;;;;;4.94;100.00;97716.38;5081821;28;20419;-62
2023/12/20 07:20:44;;;;;;;4.13;1.60;;;;;;;4.95;99.99;97712.91;5081040;28;20032;-60
2023/12/20 07:23:10;;;;;;;3.47;1.50;;;;;;;4.78;99.48;97687.03;5081584;28;20067;-59
2023/12/20 07:25:36;;;;;;;1.45;1.00;;;;;;;4.98;100.00;97721.31;5083791;28;20188;-61
2023/12/20 07:28:02;;;;;;;4.72;1.30;;;;;;;4.97;99.48;97721.41;5082895;28;20139;-61
2023/12/20 07:30:28;;;;;;;2.50;1.35;;;;;;;5.01;99.01;97722.94;5073739;28;20040;-60
2023/12/20 07:32:54;;;;;;;3.13;1.65;;;;;;;5.05;99.81;97724.47;5080807;28;20043;-60
2023/12/20 07:35:20;;;;;;;3.08;1.38;;;;;;;4.86;98.96;97710.72;5085778;28;20043;-61
2023/12/20 07:37:46;;;;;;;3.63;1.60;;;;;;;5.05;98.48;97733.03;5081984;28;20040;-60
2023/12/20 07:40:12;;;;;;;1.77;1.00;;;;;;;5.06;98.66;97746.75;5087782;28;20145;-61
2023/12/20 07:42:38;;;;;;;1.83;1.13;;;;;;;5.00;97.89;97740.13;5075235;28;20040;-60
2023/12/20 07:45:04;;;;;;;2.80;1.80;;;;;;;4.56;97.84;97679.38;5076809;28;20657;-60
2023/12/20 07:47:32;;;;;;;5.82;1.92;;;;;;;4.99;97.24;97750.47;5077115;28;20036;-62
2023/12/20 07:49:58;;;;;;;2.63;1.52;;;;;;;5.02;97.52;97756.31;5072828;28;20048;-59
2023/12/20 07:52:25;;;;;;;5.25;1.55;;;;;;;5.04;96.93;97756.25;5076318;28;20040;-57
2023/12/20 07:54:52;;;;;;;2.63;1.33;;;;;;;5.08;96.82;97750.06;5079532;28;20418;-56
2023/12/20 07:57:18;;;;;;;2.80;1.48;;;;;;;5.02;95.66;97755.50;5083183;28;20040;-63
2023/12/20 07:59:44;;;;;;;0.85;0.73;;;;;;;4.82;95.08;97710.00;5076119;28;20047;-63
2023/12/20 08:02:10;;;;;;;4.80;1.40;;;;;;;5.02;95.05;97730.56;5073834;28;20101;-61
2023/12/20 08:04:36;;;;;;;3.75;1.30;;;;;;;5.39;94.79;97744.44;5075327;28;20040;-59
2023/12/20 08:07:03;;;;;;;3.70;1.70;;;;;;;5.52;93.19;97751.53;5078519;28;20401;-61
2023/12/20 08:09:29;;;;;;;4.60;1.17;;;;;;;5.42;92.82;97719.34;5084399;28;20042;-61
2023/12/20 08:11:55;;;;;;;3.28;1.35;;;;;;;5.57;92.63;97735.88;5081032;28;20058;-58
2023/12/20 08:14:24;;;;;;;4.22;1.48;;;;;;;5.71;91.72;97758.41;5081580;28;20442;-63
2023/12/20 08:16:50;;;;;;;1.80;1.20;;;;;;;5.74;90.55;97753.97;5084326;28;20040;-61
2023/12/20 08:19:17;;;;;;;1.95;1.20;;;;;;;5.73;89.70;97756.63;5081079;28;20035;-61
2023/12/20 08:21:42;;;;;;;6.07;1.60;;;;;;;5.70;89.47;97764.50;5083329;28;20047;-61
2023/12/20 08:24:08;;;;;;;1.70;1.17;;;;;;;5.74;89.58;97766.03;5082733;28;20483;-62
2023/12/20 08:26:34;;;;;;;1.85;0.90;;;;;;;5.59;89.54;97731.47;5065058;28;20037;-57
2023/12/20 08:29:00;;;;;;;2.45;1.00;;;;;;;5.63;88.34;97766.53;5084461;28;20477;-62
2023/12/20 08:31:26;;;;;;;3.15;1.30;;;;;;;5.25;89.35;97698.66;5077965;28;20047;-60
2023/12/20 08:33:53;;;;;;;2.42;1.20;;;;;;;5.77;90.23;97756.41;5089681;28;20064;-62
2023/12/20 08:36:21;;;;;;;1.75;0.95;;;;;;;5.79;89.55;97751.19;5071089;28;20040;-60
2023/12/20 08:38:47;;;;;;;3.97;1.52;;;;;;;5.77;87.52;97753.81;5071483;28;20075;-59
2023/12/20 08:41:13;;;;;;;3.67;1.30;;;;;;;5.80;87.08;97751.13;5075510;28;20036;-59
2023/12/20 08:43:40;;;;;;;2.08;1.35;;;;;;;5.97;87.67;97740.03;5091511;28;20545;-59
2023/12/20 08:46:06;;;;;;;2.05;1.38;;;;;;;6.10;87.16;97750.63;5072186;28;20041;-55
2023/12/20 08:48:32;;;;;;;2.88;1.10;;;;;;;6.06;85.96;97743.94;5072416;28;20037;-57
2023/12/20 08:50:58;;;;;;;4.45;1.40;;;;;;;6.10;85.34;97754.03;5072636;28;20052;-60
2023/12/20 08:53:25;;;;;;;3.13;1.20;;;;;;;6.16;85.35;97753.75;5073297;28;20079;-58
2023/12/20 08:55:51;;;;;;;3.97;1.40;;;;;;;6.15;85.46;97746.91;5071551;28;20048;-58
2023/12/20 08:58:17;;;;;;;5.10;1.60;;;;;;;6.07;84.70;97750.78;5077782;28;20098;-58
2023/12/20 09:00:42;;;;;;;1.90;1.27;;;;;;;6.01;84.71;97735.59;5071113;28;20040;-56
2023/12/20 09:03:09;;;;;;;3.63;2.10;;;;;;;5.97;85.17;97732.28;5072989;28;20040;-56
2023/12/20 09:05:35;;;;;;;2.33;1.25;;;;;;;5.95;84.87;97741.88;5087469;28;20118;-58
2023/12/20 09:08:01;;;;;;;3.55;1.38;;;;;;;5.84;84.68;97728.59;5055920;28;20213;-61
2023/12/20 09:10:27;;;;;;;2.13;1.17;;;;;;;5.69;85.15;97727.56;5072772;28;20055;-60
2023/12/20 09:12:57;;;;;;;1.60;0.93;;;;;;;5.77;85.29;97746.09;5069813;28;20092;-59
2023/12/20 09:15:25;;;;;;;2.08;1.30;;;;;;;5.75;85.68;97736.78;5071019;28;20132;-58
2023/12/20 09:17:51;;;;;;;2.10;1.60;;;;;;;5.74;85.61;97735.09;5085570;28;20511;-59
2023/12/20 09:20:17;;;;;;;1.58;1.05;;;;;;;5.73;86.15;97751.47;5080816;28;20123;-57
2023/12/20 09:22:43;;;;;;;2.38;1.48;;;;;;;5.48;86.51;97711.34;5070695;28;20182;-59
2023/12/20 09:25:10;;;;;;;3.88;1.50;;;;;;;5.48;86.95;97698.47;5069815;28;20073;-57
2023/12/20 09:27:37;;;;;;;1.38;0.95;;;;;;;5.76;86.33;97734.09;5071683;28;20045;-56
2023/12/20 09:30:05;;;;;;;4.47;1.73;;;;;;;5.72;86.62;97736.91;5072141;28;20066;-55
2023/12/20 09:32:33;;;;;;;2.47;1.13;;;;;;;5.79;86.53;97740.88;5070954;28;20150;-59
2023/12/20 09:35:00;;;;;;;4.38;1.52;;;;;;;5.66;86.95;97725.13;5070724;28;20454;-59
2023/12/20 09:37:27;;;;;;;3.83;1.70;;;;;;;5.64;86.97;97733.84;5071700;28;20142;-58
2023/12/20 09:39:54;;;;;;;1.95;1.30;;;;;;;5.72;87.05;97739.47;5068903;28;20040;-61
2023/12/20 09:42:39;;;;;;;3.47;1.60;;;;;;;5.69;86.93;97739.63;5073066;28;20048;-58
2023/12/20 09:45:08;;;;;;;1.85;1.30;;;;;;;5.69;87.61;97742.22;5072921;28;20507;-58
2023/12/20 09:47:35;;;;;;;2.20;1.20;;;;;;;5.65;87.48;97738.94;5070884;28;20652;-57
2023/12/20 09:50:02;;;;;;;1.83;1.17;;;;;;;5.58;87.41;97734.97;5067302;28;20106;-57
2023/12/20 09:52:32;;;;;;;3.10;1.63;;;;;;;5.58;87.56;97731.53;5072310;28;20516;-58
2023/12/20 09:54:57;;;;;;;2.75;1.33;;;;;;;5.36;87.80;97690.44;5071275;28;20464;-58
2023/12/20 09:57:23;;;;;;;3.45;1.50;;;;;;;5.63;88.29;97730.44;5070971;28;20085;-59
2023/12/20 09:59:50;;;;;;;3.97;1.00;;;;;;;5.44;87.71;97703.84;5072639;28;20515;-60
2023/12/20 10:02:16;;;;;;;3.30;1.58;;;;;;;5.62;88.04;97733.91;5068069;28;20135;-58
2023/12/20 10:04:48;;;;;;;1.48;0.95;;;;;;;5.65;88.72;97741.53;5074563;28;20048;-59
2023/12/20 10:07:14;;;;;;;1.80;1.20;;;;;;;5.46;88.02;97718.31;5074796;28;20551;-58
2023/12/20 10:09:40;;;;;;;2.10;1.02;;;;;;;5.60;88.26;97740.06;5074085;28;20051;-57
2023/12/20 10:12:07;;;;;;;1.92;1.27;;;;;;;5.51;88.65;97731.81;5067226;28;20563;-58
2023/12/20 10:14:33;;;;;;;0.93;0.75;;;;;;;5.46;88.63;97714.88;5046134;28;20059;-56
2023/12/20 10:17:03;;;;;;;4.78;1.70;;;;;;;5.21;88.58;97678.25;5071651;28;20419;-58
2023/12/20 10:19:30;;;;;;;4.72;1.80;;;;;;;5.53;89.29;97729.19;5075654;28;20051;-58
2023/12/20 10:22:00;;;;;;;2.55;1.30;;;;;;;5.26;88.67;97692.63;5071354;28;20044;-59
2023/12/20 10:24:32;;;;;;;4.35;1.83;;;;;;;5.49;88.97;97730.22;5064409;28;20530;-58
2023/12/20 10:27:05;;;;;;;2.28;1.60;;;;;;;5.29;88.85;97696.78;5042881;28;20120;-61
2023/12/20 10:29:38;;;;;;;2.47;1.60;;;;;;;5.38;89.52;97698.97;5070529;28;20047;-60
2023/12/20 10:32:26;;;;;;;2.38;1.30;;;;;;;5.59;89.31;97738.38;5081711;28;20079;-60
2023/12/20 10:34:54;;;;;;;3.42;1.92;;;;;;;5.56;89.51;97739.34;5078024;28;20093;-58
2023/12/20 10:37:20;;;;;;;3.28;1.60;;;;;;;5.44;89.02;97717.53;5075352;28;20134;-60
2023/12/20 10:39:58;;;;;;;2.28;1.00;;;;;;;5.55;89.08;97742.81;5069817;28;20044;-58
2023/12/20 10:42:27;;;;;;;4.32;1.50;;;;;;;5.52;89.26;97735.22;5081265;28;20043;-59
2023/12/20 10:44:55;;;;;;;1.92;1.10;;;;;;;5.54;88.82;97747.16;5061438;28;20036;-58
2023/12/20 10:47:22;;;;;;;2.30;1.47;;;;;;;5.37;89.19;97710.16;5080264;28;20044;-58
2023/12/20 10:49:49;;;;;;;1.95;1.15;;;;;;;5.36;88.85;97716.22;5071074;28;20048;-59
2023/12/20 10:52:16;;;;;;;2.50;1.30;;;;;;;5.57;88.51;97737.59;5074130;28;20040;-58
2023/12/20 10:54:43;;;;;;;2.78;1.25;;;;;;;5.46;88.79;97730.34;5071681;28;20044;-57
2023/12/20 10:57:09;;;;;;;1.63;1.05;;;;;;;5.40;89.07;97703.13;5074572;28;20372;-58
2023/12/20 10:59:37;;;;;;;2.28;0.90;;;;;;;5.51;88.34;97738.72;5076366;28;20044;-57
2023/12/20 11:02:06;;;;;;;3.72;1.55;;;;;;;5.32;88.35;97702.66;5077763;28;20536;-58
2023/12/20 11:04:42;;;;;;;;;;;;;;;5.55;88.28;97732.50;5051064;28;20070;-60
2023/12/20 11:07:30;;;;;;;1.85;1.02;;;;;;;5.51;88.46;97731.81;5075732;28;19920;-58
2023/12/20 11:10:06;;;;;;;6.70;1.90;;;;;;;5.50;88.76;97719.84;5057792;28;20036;-59
2023/12/20 11:12:37;;;;;;;5.15;1.75;;;;;;;5.55;88.30;97719.63;5059283;28;20043;-57
2023/12/20 11:15:04;;;;;;;3.75;1.88;;;;;;;5.55;88.68;97725.63;5079209;28;20071;-60
2023/12/20 11:17:32;;;;;;;3.75;1.70;;;;;;;5.49;87.90;97715.63;5083700;28;20118;-60
2023/12/20 11:19:59;;;;;;;3.42;1.38;;;;;;;5.55;87.87;97725.63;5073907;28;20131;-60
2023/12/20 11:22:27;;;;;;;1.77;0.98;;;;;;;5.42;87.88;97709.06;5076412;28;20098;-61
2023/12/20 11:24:53;;;;;;;3.00;1.60;;;;;;;5.54;87.88;97729.13;5072881;28;20067;-60
2023/12/20 11:27:20;;;;;;;1.70;1.00;;;;;;;5.54;87.71;97726.53;5072135;28;20040;-57
2023/12/20 11:29:53;;;;;;;0.65;0.52;;;;;;;5.57;87.34;97735.03;5074458;28;20044;-58
2023/12/20 11:32:26;;;;;;;4.78;0.80;;;;;;;5.62;86.90;97739.06;5077495;28;20133;-59
2023/12/20 11:35:00;;;;;;;1.88;1.00;;;;;;;5.58;87.18;97721.22;5080109;28;20071;-57